createdAt,value
2023-04-26T00:00:21.574Z,79.07
2023-04-26T00:03:12.775Z,78.96
2023-04-26T00:05:42.953Z,79.07
2023-04-26T00:08:15.029Z,79.03
2023-04-26T00:10:45.653Z,78.87
2023-04-26T00:13:13.816Z,78.90
2023-04-26T00:15:43.202Z,78.74
2023-04-26T00:18:13.106Z,79.11
2023-04-26T00:20:41.549Z,79.07
2023-04-26T00:23:21.816Z,79.32
2023-04-26T00:25:50.479Z,79.29
2023-04-26T00:28:18.735Z,79.27
2023-04-26T00:30:48.561Z,79.41
2023-04-26T00:33:16.829Z,79.41
2023-04-26T00:35:45.210Z,79.28
2023-04-26T00:38:14.118Z,79.26
2023-04-26T00:40:46.879Z,79.17
2023-04-26T00:43:15.661Z,78.92
2023-04-26T00:45:46.115Z,78.66
2023-04-26T00:48:16.026Z,78.24
2023-04-26T00:50:49.369Z,78.21
2023-04-26T00:53:26.560Z,78.16
2023-04-26T00:56:00.675Z,77.92
2023-04-26T00:58:30.260Z,77.61
2023-04-26T01:01:04.957Z,77.56
2023-04-26T01:03:34.874Z,77.14
2023-04-26T01:06:05.278Z,76.96
2023-04-26T01:08:36.426Z,76.74
2023-04-26T01:11:12.220Z,76.77
2023-04-26T01:13:49.012Z,76.41
2023-04-26T01:16:21.280Z,76.76
2023-04-26T01:18:54.473Z,76.76
2023-04-26T01:21:28.099Z,76.60
2023-04-26T01:23:56.831Z,76.64
2023-04-26T01:26:27.007Z,76.73
2023-04-26T01:29:00.183Z,76.98
2023-04-26T01:31:28.597Z,76.76
2023-04-26T01:34:01.732Z,76.82
2023-04-26T01:36:31.241Z,76.83
2023-04-26T01:39:00.761Z,76.98
2023-04-26T01:41:29.113Z,77.09
2023-04-26T01:44:05.157Z,77.33
2023-04-26T01:46:35.285Z,77.05
2023-04-26T01:49:03.700Z,77.11
2023-04-26T01:51:33.906Z,77.26
2023-04-26T01:54:06.065Z,77.38
2023-04-26T01:56:35.292Z,77.60
2023-04-26T01:59:04.770Z,77.66
2023-04-26T02:01:33.047Z,77.92
2023-04-26T02:04:10.880Z,77.79
2023-04-26T02:06:42.317Z,78.20
2023-04-26T02:09:12.361Z,78.21
2023-04-26T02:11:41.604Z,78.31
2023-04-26T02:14:10.600Z,78.27
2023-04-26T02:16:40.235Z,78.41
2023-04-26T02:19:12.265Z,78.49
2023-04-26T02:21:58.539Z,78.59
2023-04-26T02:24:31.867Z,78.74
2023-04-26T02:27:05.813Z,78.99
2023-04-26T02:29:44.416Z,79.00
2023-04-26T02:32:28.870Z,79.09
2023-04-26T02:35:00.326Z,79.33
2023-04-26T02:37:29.715Z,79.34
2023-04-26T02:39:58.911Z,79.20
2023-04-26T02:42:27.551Z,79.16
2023-04-26T02:44:57.745Z,79.43
2023-04-26T02:47:29.324Z,79.54
2023-04-26T02:50:00.187Z,79.75
2023-04-26T02:52:30.262Z,79.96
2023-04-26T02:55:01.950Z,79.97
2023-04-26T02:57:34.218Z,80.04
2023-04-26T03:00:05.036Z,79.92
2023-04-26T03:02:34.465Z,79.83
2023-04-26T03:05:05.681Z,80.07
2023-04-26T03:07:40.516Z,80.36
2023-04-26T03:10:17.138Z,80.38
2023-04-26T03:12:45.325Z,80.23
2023-04-26T03:15:13.526Z,80.00
2023-04-26T03:17:48.696Z,80.05
2023-04-26T03:20:21.101Z,80.16
2023-04-26T03:22:52.729Z,80.00
2023-04-26T03:25:23.529Z,80.00
2023-04-26T03:27:57.450Z,80.10
2023-04-26T03:30:29.026Z,79.97
2023-04-26T03:32:57.438Z,79.92
2023-04-26T03:35:25.451Z,80.00
2023-04-26T03:37:55.400Z,79.88
2023-04-26T03:40:26.795Z,80.19
2023-04-26T03:42:55.697Z,80.03
2023-04-26T03:45:26.327Z,79.93
2023-04-26T03:47:56.303Z,79.78
2023-04-26T03:50:25.322Z,79.76
2023-04-26T03:52:54.627Z,79.79
2023-04-26T03:55:23.774Z,79.63
2023-04-26T03:57:53.451Z,79.48
2023-04-26T04:00:29.293Z,79.60
2023-04-26T04:02:57.755Z,79.55
2023-04-26T04:05:39.530Z,79.33
2023-04-26T04:08:11.085Z,78.79
2023-04-26T04:10:42.218Z,79.04
2023-04-26T04:13:13.453Z,78.94
2023-04-26T04:15:43.302Z,78.67
2023-04-26T04:18:15.162Z,78.69
2023-04-26T04:20:44.391Z,78.44
2023-04-26T04:23:12.651Z,78.26
2023-04-26T04:25:41.798Z,78.01
2023-04-26T04:28:24.276Z,77.53
2023-04-26T04:30:57.109Z,76.93
2023-04-26T04:33:33.884Z,76.95
2023-04-26T04:36:07.384Z,76.94
2023-04-26T04:38:40.204Z,76.62
2023-04-26T04:41:16.605Z,76.50
2023-04-26T04:43:52.241Z,76.36
2023-04-26T04:47:19.523Z,76.07
2023-04-26T04:50:14.565Z,75.88
2023-04-26T04:53:00.389Z,76.08
2023-04-26T04:55:40.464Z,75.83
2023-04-26T04:58:21.955Z,75.81
2023-04-26T05:01:49.415Z,75.83
2023-04-26T05:04:21.412Z,76.16
2023-04-26T05:06:51.076Z,75.90
2023-04-26T05:09:29.132Z,75.94
2023-04-26T05:11:59.626Z,76.13
2023-04-26T05:14:30.433Z,76.13
2023-04-26T05:16:59.662Z,75.90
2023-04-26T05:19:36.673Z,75.63
2023-04-26T05:22:07.414Z,75.65
2023-04-26T05:24:38.468Z,75.54
2023-04-26T05:27:10.099Z,75.40
2023-04-26T05:30:03.687Z,75.07
2023-04-26T05:32:52.681Z,75.36
2023-04-26T05:36:31.439Z,74.79
2023-04-26T05:39:00.639Z,74.40
2023-04-26T05:41:29.706Z,73.99
2023-04-26T05:44:08.408Z,74.03
2023-04-26T05:46:39.993Z,74.20
2023-04-26T05:49:12.363Z,73.73
2023-04-26T05:51:54.055Z,73.64
2023-04-26T05:54:26.353Z,72.72
2023-04-26T05:56:57.207Z,72.56
2023-04-26T05:59:36.742Z,72.81
2023-04-26T06:02:09.603Z,71.96
2023-04-26T06:04:39.743Z,72.53
2023-04-26T06:07:12.196Z,72.27
2023-04-26T06:09:41.081Z,72.02
2023-04-26T06:12:12.024Z,72.21
2023-04-26T06:14:42.380Z,71.64
2023-04-26T06:17:15.433Z,70.40
2023-04-26T06:19:44.014Z,69.17
2023-04-26T06:22:12.195Z,69.23
2023-04-26T06:24:42.849Z,68.13
2023-04-26T06:27:11.042Z,67.53
2023-04-26T06:29:43.410Z,66.03
2023-04-26T06:32:15.455Z,64.27
2023-04-26T06:34:45.463Z,63.52
2023-04-26T06:37:13.756Z,64.39
2023-04-26T06:39:43.684Z,64.99
2023-04-26T06:42:22.836Z,64.01
2023-04-26T06:45:11.417Z,63.80
2023-04-26T06:47:40.096Z,63.13
2023-04-26T06:50:10.505Z,63.44
2023-04-26T06:52:42.534Z,62.77
2023-04-26T06:55:16.862Z,61.20
2023-04-26T06:57:50.677Z,61.46
2023-04-26T07:00:19.645Z,61.50
2023-04-26T07:02:48.931Z,60.84
2023-04-26T07:05:17.846Z,59.99
2023-04-26T07:07:46.789Z,58.62
2023-04-26T07:10:15.522Z,58.93
2023-04-26T07:12:50.509Z,59.67
2023-04-26T07:15:19.434Z,59.42
2023-04-26T07:17:47.618Z,59.59
2023-04-26T07:20:20.531Z,59.85
2023-04-26T07:22:50.483Z,55.49
2023-04-26T07:25:18.893Z,55.65
2023-04-26T07:27:53.395Z,56.10
2023-04-26T07:30:37.553Z,53.99
2023-04-26T07:33:05.733Z,54.36
2023-04-26T07:35:35.154Z,52.55
2023-04-26T07:38:04.252Z,52.11
2023-04-26T07:40:32.854Z,52.17
2023-04-26T07:43:03.790Z,52.90
2023-04-26T07:45:34.090Z,53.85
2023-04-26T07:48:02.477Z,53.64
2023-04-26T07:50:31.439Z,53.34
2023-04-26T07:53:02.214Z,54.03
2023-04-26T07:55:30.610Z,53.62
2023-04-26T07:57:58.809Z,53.57
2023-04-26T08:00:27.352Z,53.36
2023-04-26T08:03:20.607Z,52.45
2023-04-26T08:05:54.667Z,51.57
2023-04-26T08:08:28.357Z,52.01
2023-04-26T08:10:57.750Z,50.03
2023-04-26T08:13:29.802Z,47.87
2023-04-26T08:16:20.320Z,46.42
2023-04-26T08:18:52.759Z,47.14
2023-04-26T08:21:49.984Z,46.80
2023-04-26T08:24:28.876Z,46.62
2023-04-26T08:26:59.871Z,48.24
2023-04-26T08:29:29.478Z,47.19
2023-04-26T08:31:58.543Z,47.00
2023-04-26T08:34:28.968Z,47.23
2023-04-26T08:36:57.006Z,47.64
2023-04-26T08:39:25.299Z,46.53
2023-04-26T08:42:04.132Z,47.40
2023-04-26T08:44:36.871Z,46.95
2023-04-26T08:47:39.441Z,46.75
2023-04-26T08:50:12.032Z,42.31
2023-04-26T08:52:42.448Z,41.38
2023-04-26T08:55:12.819Z,41.72
2023-04-26T08:58:12.209Z,41.09
2023-04-26T09:00:46.255Z,41.89
2023-04-26T09:03:15.450Z,40.27
2023-04-26T09:05:49.483Z,39.45
2023-04-26T09:08:18.929Z,40.16
2023-04-26T09:10:50.137Z,40.01
2023-04-26T09:13:19.272Z,41.28
2023-04-26T09:15:49.441Z,40.43
2023-04-26T09:18:19.969Z,41.71
2023-04-26T09:21:09.192Z,42.19
2023-04-26T09:24:01.609Z,41.40
2023-04-26T09:26:30.603Z,41.15
2023-04-26T09:29:20.560Z,40.10
2023-04-26T09:31:50.978Z,41.16
2023-04-26T09:34:19.728Z,41.68
2023-04-26T09:36:55.038Z,41.66
2023-04-26T09:39:41.429Z,41.34
2023-04-26T09:42:19.929Z,40.82
2023-04-26T09:44:53.431Z,39.79
2023-04-26T09:47:27.201Z,38.20
2023-04-26T09:49:55.743Z,38.91
2023-04-26T09:52:28.291Z,38.95
2023-04-26T09:54:56.870Z,38.66
2023-04-26T09:57:24.995Z,38.57
2023-04-26T09:59:55.950Z,38.20
2023-04-26T10:02:27.955Z,38.71
2023-04-26T10:04:59.243Z,38.74
2023-04-26T10:07:30.059Z,38.52
2023-04-26T10:09:58.463Z,38.46
2023-04-26T10:12:27.624Z,38.62
2023-04-26T10:14:57.234Z,38.78
2023-04-26T10:17:25.451Z,39.48
2023-04-26T10:20:00.549Z,39.21
2023-04-26T10:22:36.626Z,38.84
2023-04-26T10:25:09.006Z,39.52
2023-04-26T10:27:49.632Z,38.52
2023-04-26T10:30:22.626Z,38.82
2023-04-26T10:32:56.947Z,38.63
2023-04-26T10:35:32.248Z,37.09
2023-04-26T10:38:00.264Z,37.64
2023-04-26T10:40:33.235Z,36.78
2023-04-26T10:43:10.930Z,36.71
2023-04-26T10:45:41.357Z,37.87
2023-04-26T10:48:22.156Z,39.15
2023-04-26T10:51:04.955Z,37.31
2023-04-26T10:53:45.800Z,36.96
2023-04-26T10:56:23.255Z,38.17
2023-04-26T10:59:43.501Z,36.77
2023-04-26T11:03:02.948Z,36.14
2023-04-26T11:05:57.074Z,36.70
2023-04-26T11:08:31.705Z,34.91
2023-04-26T11:11:02.869Z,35.15
2023-04-26T11:13:36.007Z,34.91
2023-04-26T11:16:17.258Z,34.74
2023-04-26T11:18:48.890Z,35.44
2023-04-26T11:21:19.094Z,34.80
2023-04-26T11:23:57.749Z,34.79
2023-04-26T11:26:36.544Z,35.58
2023-04-26T11:29:17.842Z,34.48
2023-04-26T11:31:59.759Z,32.19
2023-04-26T11:34:39.174Z,32.18
2023-04-26T11:37:08.918Z,33.02
2023-04-26T11:39:37.319Z,31.81
2023-04-26T11:42:12.779Z,31.31
2023-04-26T11:44:41.422Z,31.03
2023-04-26T11:47:10.139Z,31.36
2023-04-26T11:49:41.422Z,31.88
2023-04-26T11:52:10.230Z,31.11
2023-04-26T11:54:38.333Z,29.65
2023-04-26T11:57:19.240Z,30.64
2023-04-26T11:59:48.285Z,30.36
2023-04-26T12:02:16.561Z,30.83
2023-04-26T12:04:47.034Z,28.96
2023-04-26T12:07:21.018Z,29.17
2023-04-26T12:09:49.377Z,30.56
2023-04-26T12:12:17.692Z,29.35
2023-04-26T12:14:47.299Z,29.14
2023-04-26T12:17:15.572Z,28.85
2023-04-26T12:19:50.121Z,28.24
2023-04-26T12:22:23.903Z,28.81
2023-04-26T12:25:05.995Z,30.15
2023-04-26T12:27:35.754Z,30.26
2023-04-26T12:30:04.970Z,29.90
2023-04-26T12:32:33.411Z,29.76
2023-04-26T12:35:01.990Z,29.11
2023-04-26T12:37:36.594Z,29.07
2023-04-26T12:40:13.444Z,29.27
2023-04-26T12:42:41.854Z,29.30
2023-04-26T12:45:12.623Z,29.75
2023-04-26T12:47:41.525Z,29.00
2023-04-26T12:50:12.259Z,28.82
2023-04-26T12:52:41.706Z,28.02
2023-04-26T12:55:15.710Z,27.90
2023-04-26T12:57:45.492Z,29.13
2023-04-26T13:00:22.748Z,28.61
2023-04-26T13:02:51.479Z,28.50
2023-04-26T13:05:22.349Z,29.67
2023-04-26T13:07:51.550Z,30.33
2023-04-26T13:10:19.749Z,29.93
2023-04-26T13:12:48.145Z,29.65
2023-04-26T13:15:17.732Z,29.69
2023-04-26T13:17:46.653Z,29.97
2023-04-26T13:20:14.899Z,30.37
2023-04-26T13:22:43.231Z,30.28
2023-04-26T13:25:12.718Z,30.68
2023-04-26T13:27:41.060Z,30.27
2023-04-26T13:30:11.205Z,30.17
2023-04-26T13:32:40.088Z,30.35
2023-04-26T13:35:08.588Z,29.78
2023-04-26T13:37:36.801Z,28.17
2023-04-26T13:40:06.132Z,27.59
2023-04-26T13:42:50.814Z,27.73
2023-04-26T13:45:19.848Z,28.35
2023-04-26T13:47:51.625Z,28.83
2023-04-26T13:50:19.914Z,29.23
2023-04-26T13:52:50.503Z,29.31
2023-04-26T13:55:18.590Z,29.96
2023-04-26T13:57:46.995Z,29.63
2023-04-26T14:00:16.044Z,31.22
2023-04-26T14:02:44.315Z,28.87
2023-04-26T14:05:12.819Z,27.99
2023-04-26T14:07:41.449Z,26.55
2023-04-26T14:10:10.095Z,26.23
2023-04-26T14:12:38.608Z,26.37
2023-04-26T14:15:18.083Z,26.04
2023-04-26T14:17:47.177Z,24.62
2023-04-26T14:20:18.284Z,24.00
2023-04-26T14:22:49.830Z,24.66
2023-04-26T14:25:21.134Z,23.89
2023-04-26T14:27:49.250Z,23.54
2023-04-26T14:30:18.515Z,24.78
2023-04-26T14:32:48.532Z,24.19
2023-04-26T14:35:18.498Z,23.56
2023-04-26T14:37:47.231Z,23.18
2023-04-26T14:40:21.220Z,23.13
2023-04-26T14:42:58.032Z,23.73
2023-04-26T14:45:37.015Z,23.14
2023-04-26T14:48:13.055Z,22.98
2023-04-26T14:50:41.311Z,22.59
2023-04-26T14:53:10.725Z,23.25
2023-04-26T14:55:42.296Z,23.14
2023-04-26T14:58:12.198Z,23.72
2023-04-26T15:00:40.329Z,24.10
2023-04-26T15:03:20.381Z,24.63
2023-04-26T15:05:55.042Z,29.73
2023-04-26T15:08:23.435Z,36.17
2023-04-26T15:10:52.959Z,37.94
2023-04-26T15:13:22.256Z,40.11
2023-04-26T15:15:52.076Z,41.94
2023-04-26T15:18:25.720Z,43.73
2023-04-26T15:21:06.457Z,46.01
2023-04-26T15:23:36.074Z,48.06
2023-04-26T15:26:05.777Z,49.24
2023-04-26T15:28:35.179Z,50.45
2023-04-26T15:31:08.682Z,51.29
2023-04-26T15:34:00.929Z,52.22
2023-04-26T15:36:32.521Z,52.25
2023-04-26T15:39:01.049Z,52.85
2023-04-26T15:41:32.452Z,53.43
2023-04-26T15:44:01.541Z,53.83
2023-04-26T15:46:29.778Z,55.14
2023-04-26T15:48:57.987Z,55.72
2023-04-26T15:51:27.469Z,56.22
2023-04-26T15:53:59.608Z,57.05
2023-04-26T15:56:29.063Z,57.86
2023-04-26T15:58:58.317Z,58.46
2023-04-26T16:01:29.042Z,58.92
2023-04-26T16:03:58.090Z,59.18
2023-04-26T16:06:28.175Z,59.98
2023-04-26T16:08:56.563Z,60.66
2023-04-26T16:11:26.292Z,60.50
2023-04-26T16:13:56.528Z,61.09
2023-04-26T16:16:26.332Z,61.48
2023-04-26T16:18:54.796Z,61.59
2023-04-26T16:21:23.203Z,61.16
2023-04-26T16:23:52.931Z,61.91
2023-04-26T16:26:21.914Z,62.18
2023-04-26T16:28:51.507Z,62.48
2023-04-26T16:31:21.522Z,62.34
2023-04-26T16:33:51.528Z,62.39
2023-04-26T16:36:19.540Z,62.85
2023-04-26T16:38:47.813Z,63.16
2023-04-26T16:41:17.272Z,62.91
2023-04-26T16:43:46.143Z,63.39
2023-04-26T16:46:15.818Z,63.53
2023-04-26T16:48:44.366Z,63.52
2023-04-26T16:51:13.385Z,64.01
2023-04-26T16:53:43.164Z,64.30
2023-04-26T16:56:13.060Z,64.31
2023-04-26T16:58:41.574Z,64.60
2023-04-26T17:01:11.811Z,64.50
2023-04-26T17:03:40.953Z,64.74
2023-04-26T17:06:10.737Z,65.05
2023-04-26T17:08:39.057Z,64.91
2023-04-26T17:11:07.973Z,65.00
2023-04-26T17:13:36.735Z,65.13
2023-04-26T17:16:08.330Z,65.17
2023-04-26T17:18:38.542Z,65.39
2023-04-26T17:21:07.162Z,65.04
2023-04-26T17:23:38.044Z,65.09
2023-04-26T17:26:06.125Z,65.12
2023-04-26T17:28:34.365Z,64.93
2023-04-26T17:31:03.540Z,65.18
2023-04-26T17:33:42.003Z,65.55
2023-04-26T17:36:10.749Z,65.68
2023-04-26T17:38:40.004Z,65.61
2023-04-26T17:41:08.039Z,65.31
2023-04-26T17:43:36.194Z,65.01
2023-04-26T17:46:04.652Z,65.44
2023-04-26T17:48:33.026Z,65.02
2023-04-26T17:51:02.601Z,65.24
2023-04-26T17:53:31.450Z,65.38
2023-04-26T17:56:01.203Z,65.27
2023-04-26T17:58:29.549Z,65.34
2023-04-26T18:00:57.491Z,65.29
2023-04-26T18:03:30.241Z,65.44
2023-04-26T18:06:03.000Z,65.62
2023-04-26T18:08:31.273Z,65.74
2023-04-26T18:11:00.312Z,65.73
2023-04-26T18:13:28.457Z,65.61
2023-04-26T18:15:56.971Z,65.54
2023-04-26T18:18:28.209Z,65.51
2023-04-26T18:20:56.437Z,65.19
2023-04-26T18:23:24.504Z,64.70
2023-04-26T18:25:53.080Z,64.19
2023-04-26T18:28:21.579Z,63.78
2023-04-26T18:31:00.442Z,63.73
2023-04-26T18:33:28.909Z,63.42
2023-04-26T18:35:56.947Z,63.57
2023-04-26T18:38:31.466Z,63.28
2023-04-26T18:41:00.331Z,63.37
2023-04-26T18:43:32.224Z,63.13
2023-04-26T18:46:01.756Z,63.13
2023-04-26T18:48:30.779Z,63.05
2023-04-26T18:51:00.636Z,62.62
2023-04-26T18:53:28.656Z,62.38
2023-04-26T18:55:59.606Z,62.42
2023-04-26T18:58:28.592Z,62.01
2023-04-26T19:00:57.193Z,61.71
2023-04-26T19:03:29.826Z,61.59
2023-04-26T19:05:58.872Z,61.45
2023-04-26T19:08:27.749Z,61.23
2023-04-26T19:10:56.105Z,61.03
2023-04-26T19:13:26.453Z,60.97
2023-04-26T19:15:54.761Z,61.13
2023-04-26T19:18:22.995Z,61.28
2023-04-26T19:20:52.128Z,61.29
2023-04-26T19:23:21.367Z,61.26
2023-04-26T19:25:51.540Z,61.28
2023-04-26T19:28:19.817Z,60.96
2023-04-26T19:30:47.837Z,60.46
2023-04-26T19:33:16.373Z,60.42
2023-04-26T19:35:44.414Z,60.25
2023-04-26T19:38:12.379Z,60.32
2023-04-26T19:40:46.324Z,60.09
2023-04-26T19:43:31.307Z,60.02
2023-04-26T19:45:59.432Z,59.88
2023-04-26T19:48:29.838Z,59.60
2023-04-26T19:50:58.070Z,59.49
2023-04-26T19:53:27.101Z,59.65
2023-04-26T19:55:56.387Z,59.75
2023-04-26T19:58:25.396Z,59.83
2023-04-26T20:00:55.683Z,60.05
2023-04-26T20:03:27.113Z,60.34
2023-04-26T20:05:56.314Z,60.44
2023-04-26T20:08:24.787Z,60.75
2023-04-26T20:10:52.764Z,61.33
2023-04-26T20:13:21.903Z,61.63
2023-04-26T20:15:51.154Z,61.94
2023-04-26T20:18:19.422Z,62.13
2023-04-26T20:20:48.240Z,62.30
2023-04-26T20:23:16.341Z,62.18
2023-04-26T20:25:44.390Z,62.33
2023-04-26T20:28:12.525Z,61.67
2023-04-26T20:30:42.048Z,60.99
2023-04-26T20:33:10.148Z,60.60
2023-04-26T20:35:40.786Z,60.52
2023-04-26T20:38:12.257Z,60.43
2023-04-26T20:40:40.378Z,60.77
2023-04-26T20:43:08.855Z,60.95
2023-04-26T20:45:37.183Z,60.89
2023-04-26T20:48:06.194Z,61.16
2023-04-26T20:50:36.496Z,61.60
2023-04-26T20:53:05.109Z,61.92
2023-04-26T20:55:33.350Z,62.42
2023-04-26T20:58:02.999Z,62.67
2023-04-26T21:00:31.349Z,62.70
2023-04-26T21:02:59.433Z,63.15
2023-04-26T21:05:28.083Z,63.14
2023-04-26T21:07:56.274Z,63.10
2023-04-26T21:10:24.402Z,62.97
2023-04-26T21:12:52.425Z,62.94
2023-04-26T21:15:21.328Z,62.48
2023-04-26T21:17:49.699Z,62.68
2023-04-26T21:20:17.731Z,62.58
2023-04-26T21:22:46.024Z,62.21
2023-04-26T21:25:16.678Z,61.73
2023-04-26T21:27:48.493Z,60.41
2023-04-26T21:30:17.726Z,59.21
2023-04-26T21:32:47.113Z,58.81
2023-04-26T21:35:16.985Z,58.16
2023-04-26T21:37:47.453Z,58.18
2023-04-26T21:40:16.887Z,58.35
2023-04-26T21:42:57.726Z,58.73
2023-04-26T21:45:33.602Z,59.38
2023-04-26T21:48:01.826Z,59.52
2023-04-26T21:50:30.179Z,59.36
2023-04-26T21:52:58.479Z,59.46
2023-04-26T21:55:26.952Z,59.62
2023-04-26T21:57:59.961Z,60.00
2023-04-26T22:00:28.373Z,59.90
2023-04-26T22:02:57.185Z,60.05
2023-04-26T22:05:26.588Z,60.31
2023-04-26T22:07:54.702Z,60.09
2023-04-26T22:10:23.079Z,60.23
2023-04-26T22:12:51.139Z,60.06
2023-04-26T22:15:20.076Z,60.49
2023-04-26T22:17:48.469Z,60.43
2023-04-26T22:20:16.804Z,60.54
2023-04-26T22:22:45.319Z,60.73
2023-04-26T22:25:14.506Z,61.00
2023-04-26T22:27:42.769Z,61.31
2023-04-26T22:30:22.908Z,61.60
2023-04-26T22:32:57.837Z,61.80
2023-04-26T22:35:27.519Z,62.04
2023-04-26T22:37:55.812Z,62.06
2023-04-26T22:40:23.950Z,62.48
2023-04-26T22:42:53.659Z,62.91
2023-04-26T22:45:22.448Z,63.25
2023-04-26T22:47:51.493Z,64.13
2023-04-26T22:50:20.407Z,65.07
2023-04-26T22:52:49.149Z,66.03
2023-04-26T22:55:17.590Z,65.96
2023-04-26T22:57:47.714Z,66.63
2023-04-26T23:00:17.260Z,67.39
2023-04-26T23:02:45.522Z,68.29
2023-04-26T23:05:13.733Z,69.13
2023-04-26T23:07:42.230Z,69.86
2023-04-26T23:10:10.799Z,69.80
2023-04-26T23:12:40.146Z,69.94
2023-04-26T23:15:09.393Z,70.35
2023-04-26T23:17:41.186Z,69.20
2023-04-26T23:20:12.466Z,69.67
2023-04-26T23:22:42.415Z,69.62
2023-04-26T23:25:10.714Z,69.99
2023-04-26T23:27:39.397Z,69.47
2023-04-26T23:30:08.536Z,69.23
2023-04-26T23:32:37.477Z,69.11
2023-04-26T23:35:07.138Z,68.60
2023-04-26T23:37:35.225Z,68.50
2023-04-26T23:40:05.949Z,68.43
2023-04-26T23:42:33.969Z,68.40
2023-04-26T23:45:03.918Z,68.24
2023-04-26T23:47:32.201Z,67.80
2023-04-26T23:50:00.386Z,67.31
2023-04-26T23:52:28.758Z,67.09
2023-04-26T23:54:57.340Z,66.90
2023-04-26T23:57:25.477Z,66.69
2023-04-26T23:59:53.410Z,66.61
